Aérodrome :
LOGIN :

S'inscrire | Disclaimer

   EN    FR    IT 

 










Légende :    VFR   VFR Marginal   IFR   IFR Intensif   IFR Très Intensif
Visi : 
Plafond : 
>= 8 km
>= 3000ft
5 à 8 km
1000 à 3000 ft
1500m à 5 km
500 à 1000 ft
800 à 1500m
200 à 500 ft
< 800m
< 200 ft
Symboles :   Orages  Brouillard  Fortes neiges  Fortes précipitations  Vent > 20 kt
SIGMETs :   Divers  Orages  Givrage  Turbulence  Onde Orograph.  Cendres Volcan.






- Altitude de l'aérodrome : 12 ft
- Code IATA : NCE


LFMN - Nice

DERNIER METAR :
  • 271400Z 22018KT 9999 OVC038 11/05 Q1009 NOSIG

METARs EXPIRÉS :
  • 271330Z 23021KT 9999 BKN040 12/04 Q1009 NOSIG
  • 271300Z 24021G32KT 9999 BKN046 BKN270 13/04 Q1010 NOSIG
  • 271230Z 23025KT 9999 BKN046 BKN270 13/03 Q1010 NOSIG
  • 271200Z 25018KT 9999 SCT050 BKN270 14/03 Q1010 NOSIG
  • 271130Z 24022KT 9999 FEW076 BKN270 14/M01 Q1011 NOSIG

TAF TAF LFMN
Valide du 27 à 09h jusqu'au 28 à 15h UTC


270800Z 2709/2815 30008KT CAVOK
BECMG 2710/2712 24015G25KT
TEMPO 2711/2719 24025G35KT
PROB30
TEMPO 2713/2715 RA
TEMPO 2719/2802 VRB20G40KT
BECMG 2802/2804 05014KT
ATIS : +33 4 93 17 21 16



MET'MAP, la Météo Aéronautique d'un coup d'oeil ! - Copyright ORBIFLY Décembre 2007 - Disclaimer

ORBIFLY MET'MAP TEAM :

Programmation & Développement : Alexandra Zaïnal
Sur une idée originale de : Baudouin d'Aumeries
Assistance à la programmation : Marc-Olivier Méhu
Soutien technique & logistique : Manuel Goepfert

Contact : metmap@orbifly.com




SOURCES & CREDITS :

   NOAA